sensor_id;sensor_type;location;lat;lon;timestamp;P1;durP1;ratioP1;P2;durP2;ratioP2
37715;SDS011;23562;50.540;12.504;2022-11-20T00:02:16;7.27;;;3.77;;
37715;SDS011;23562;50.540;12.504;2022-11-20T00:04:41;6.97;;;3.55;;
37715;SDS011;23562;50.540;12.504;2022-11-20T00:07:07;8.60;;;4.00;;
37715;SDS011;23562;50.540;12.504;2022-11-20T00:09:33;4.55;;;2.97;;
37715;SDS011;23562;50.540;12.504;2022-11-20T00:11:58;5.43;;;3.30;;
37715;SDS011;23562;50.540;12.504;2022-11-20T00:14:24;7.60;;;3.25;;
37715;SDS011;23562;50.540;12.504;2022-11-20T00:16:49;4.93;;;2.60;;
37715;SDS011;23562;50.540;12.504;2022-11-20T00:19:14;7.13;;;3.50;;
37715;SDS011;23562;50.540;12.504;2022-11-20T00:21:39;5.90;;;3.00;;
37715;SDS011;23562;50.540;12.504;2022-11-20T00:24:04;6.20;;;2.92;;
37715;SDS011;23562;50.540;12.504;2022-11-20T00:26:30;5.30;;;2.90;;
37715;SDS011;23562;50.540;12.504;2022-11-20T00:28:56;5.27;;;3.33;;
37715;SDS011;23562;50.540;12.504;2022-11-20T00:31:21;5.80;;;3.08;;
37715;SDS011;23562;50.540;12.504;2022-11-20T00:33:47;6.82;;;3.45;;
37715;SDS011;23562;50.540;12.504;2022-11-20T00:36:13;6.22;;;3.20;;
37715;SDS011;23562;50.540;12.504;2022-11-20T00:38:39;6.53;;;3.58;;
37715;SDS011;23562;50.540;12.504;2022-11-20T00:41:08;7.45;;;4.03;;
37715;SDS011;23562;50.540;12.504;2022-11-20T00:43:33;8.18;;;4.00;;
37715;SDS011;23562;50.540;12.504;2022-11-20T00:45:59;7.45;;;3.42;;
37715;SDS011;23562;50.540;12.504;2022-11-20T00:48:25;4.40;;;2.28;;
37715;SDS011;23562;50.540;12.504;2022-11-20T00:50:50;4.75;;;2.83;;
37715;SDS011;23562;50.540;12.504;2022-11-20T00:53:15;6.87;;;3.33;;
37715;SDS011;23562;50.540;12.504;2022-11-20T00:55:40;5.50;;;3.15;;
37715;SDS011;23562;50.540;12.504;2022-11-20T00:58:05;7.65;;;3.38;;
37715;SDS011;23562;50.540;12.504;2022-11-20T01:00:31;6.40;;;3.40;;
37715;SDS011;23562;50.540;12.504;2022-11-20T01:02:56;6.67;;;3.17;;
37715;SDS011;23562;50.540;12.504;2022-11-20T01:05:21;6.88;;;3.40;;
37715;SDS011;23562;50.540;12.504;2022-11-20T01:07:46;10.35;;;3.80;;
37715;SDS011;23562;50.540;12.504;2022-11-20T01:10:11;8.25;;;3.75;;
37715;SDS011;23562;50.540;12.504;2022-11-20T01:12:37;8.30;;;4.27;;
37715;SDS011;23562;50.540;12.504;2022-11-20T01:15:02;8.00;;;3.63;;
37715;SDS011;23562;50.540;12.504;2022-11-20T01:17:27;7.43;;;3.72;;
37715;SDS011;23562;50.540;12.504;2022-11-20T01:19:52;7.57;;;3.77;;
37715;SDS011;23562;50.540;12.504;2022-11-20T01:22:17;7.78;;;3.70;;
37715;SDS011;23562;50.540;12.504;2022-11-20T01:24:42;7.15;;;3.85;;
37715;SDS011;23562;50.540;12.504;2022-11-20T01:27:08;6.77;;;3.57;;
37715;SDS011;23562;50.540;12.504;2022-11-20T01:29:33;5.75;;;3.58;;
37715;SDS011;23562;50.540;12.504;2022-11-20T01:31:58;6.30;;;2.97;;
37715;SDS011;23562;50.540;12.504;2022-11-20T01:34:23;8.45;;;3.53;;
37715;SDS011;23562;50.540;12.504;2022-11-20T01:36:49;7.30;;;3.30;;
37715;SDS011;23562;50.540;12.504;2022-11-20T01:41:56;8.02;;;3.47;;
37715;SDS011;23562;50.540;12.504;2022-11-20T01:44:59;5.80;;;3.22;;
37715;SDS011;23562;50.540;12.504;2022-11-20T01:47:40;6.63;;;3.45;;
37715;SDS011;23562;50.540;12.504;2022-11-20T01:50:15;8.35;;;3.28;;
37715;SDS011;23562;50.540;12.504;2022-11-20T01:52:45;6.28;;;2.95;;
37715;SDS011;23562;50.540;12.504;2022-11-20T01:57:37;7.53;;;2.90;;
37715;SDS011;23562;50.540;12.504;2022-11-20T02:00:05;5.50;;;3.05;;
37715;SDS011;23562;50.540;12.504;2022-11-20T02:02:31;7.43;;;3.70;;
37715;SDS011;23562;50.540;12.504;2022-11-20T02:04:56;6.57;;;3.70;;
37715;SDS011;23562;50.540;12.504;2022-11-20T02:07:25;7.00;;;3.15;;
37715;SDS011;23562;50.540;12.504;2022-11-20T02:09:51;7.60;;;3.60;;
37715;SDS011;23562;50.540;12.504;2022-11-20T02:12:16;5.53;;;3.10;;
37715;SDS011;23562;50.540;12.504;2022-11-20T02:15:00;9.02;;;3.53;;
37715;SDS011;23562;50.540;12.504;2022-11-20T02:17:25;7.72;;;3.65;;
37715;SDS011;23562;50.540;12.504;2022-11-20T02:19:50;7.68;;;3.53;;
37715;SDS011;23562;50.540;12.504;2022-11-20T02:22:20;10.00;;;4.07;;
37715;SDS011;23562;50.540;12.504;2022-11-20T02:24:46;8.60;;;4.20;;
37715;SDS011;23562;50.540;12.504;2022-11-20T02:27:13;10.93;;;4.40;;
37715;SDS011;23562;50.540;12.504;2022-11-20T02:29:46;7.70;;;4.07;;
37715;SDS011;23562;50.540;12.504;2022-11-20T02:32:45;9.18;;;4.50;;
37715;SDS011;23562;50.540;12.504;2022-11-20T02:37:32;10.30;;;4.57;;
37715;SDS011;23562;50.540;12.504;2022-11-20T02:39:59;12.00;;;5.78;;
37715;SDS011;23562;50.540;12.504;2022-11-20T02:42:24;11.53;;;4.97;;
37715;SDS011;23562;50.540;12.504;2022-11-20T02:44:49;10.73;;;4.75;;
37715;SDS011;23562;50.540;12.504;2022-11-20T02:47:15;10.30;;;5.17;;
37715;SDS011;23562;50.540;12.504;2022-11-20T02:49:40;9.00;;;4.60;;
37715;SDS011;23562;50.540;12.504;2022-11-20T02:52:05;10.40;;;5.13;;
37715;SDS011;23562;50.540;12.504;2022-11-20T02:54:30;10.73;;;4.60;;
37715;SDS011;23562;50.540;12.504;2022-11-20T02:56:55;11.88;;;5.38;;
37715;SDS011;23562;50.540;12.504;2022-11-20T02:59:20;10.30;;;4.43;;
37715;SDS011;23562;50.540;12.504;2022-11-20T03:01:46;11.38;;;4.78;;
37715;SDS011;23562;50.540;12.504;2022-11-20T03:04:11;11.30;;;5.20;;
37715;SDS011;23562;50.540;12.504;2022-11-20T03:06:36;15.07;;;4.97;;
37715;SDS011;23562;50.540;12.504;2022-11-20T03:09:01;10.60;;;5.00;;
37715;SDS011;23562;50.540;12.504;2022-11-20T03:11:26;11.35;;;5.15;;
37715;SDS011;23562;50.540;12.504;2022-11-20T03:13:52;11.80;;;5.70;;
37715;SDS011;23562;50.540;12.504;2022-11-20T03:16:20;10.95;;;5.00;;
37715;SDS011;23562;50.540;12.504;2022-11-20T03:18:46;13.20;;;5.03;;
37715;SDS011;23562;50.540;12.504;2022-11-20T03:21:11;13.70;;;5.10;;
37715;SDS011;23562;50.540;12.504;2022-11-20T03:23:37;12.73;;;5.47;;
37715;SDS011;23562;50.540;12.504;2022-11-20T03:26:13;13.38;;;5.25;;
37715;SDS011;23562;50.540;12.504;2022-11-20T03:28:40;14.07;;;5.65;;
37715;SDS011;23562;50.540;12.504;2022-11-20T03:31:09;14.10;;;5.30;;
37715;SDS011;23562;50.540;12.504;2022-11-20T03:33:35;12.68;;;5.80;;
37715;SDS011;23562;50.540;12.504;2022-11-20T03:36:01;11.63;;;4.95;;
37715;SDS011;23562;50.540;12.504;2022-11-20T03:38:28;12.65;;;5.57;;
37715;SDS011;23562;50.540;12.504;2022-11-20T03:40:57;13.48;;;5.85;;
37715;SDS011;23562;50.540;12.504;2022-11-20T03:43:22;10.35;;;5.05;;
37715;SDS011;23562;50.540;12.504;2022-11-20T03:45:47;11.10;;;4.93;;
37715;SDS011;23562;50.540;12.504;2022-11-20T03:48:12;9.63;;;4.68;;
37715;SDS011;23562;50.540;12.504;2022-11-20T03:50:38;12.87;;;5.47;;
37715;SDS011;23562;50.540;12.504;2022-11-20T03:53:03;13.40;;;5.68;;
37715;SDS011;23562;50.540;12.504;2022-11-20T03:55:28;11.45;;;5.38;;
37715;SDS011;23562;50.540;12.504;2022-11-20T03:57:53;13.32;;;5.57;;
37715;SDS011;23562;50.540;12.504;2022-11-20T04:00:18;13.07;;;5.45;;
37715;SDS011;23562;50.540;12.504;2022-11-20T04:02:45;11.53;;;5.13;;
37715;SDS011;23562;50.540;12.504;2022-11-20T04:05:11;12.90;;;5.28;;
37715;SDS011;23562;50.540;12.504;2022-11-20T04:07:36;12.15;;;5.22;;
37715;SDS011;23562;50.540;12.504;2022-11-20T04:10:01;9.52;;;4.78;;
37715;SDS011;23562;50.540;12.504;2022-11-20T04:12:26;11.43;;;5.17;;
37715;SDS011;23562;50.540;12.504;2022-11-20T04:14:51;11.65;;;5.20;;
37715;SDS011;23562;50.540;12.504;2022-11-20T04:17:16;10.50;;;4.67;;
37715;SDS011;23562;50.540;12.504;2022-11-20T04:19:42;14.60;;;5.60;;
37715;SDS011;23562;50.540;12.504;2022-11-20T04:22:07;10.35;;;4.95;;
37715;SDS011;23562;50.540;12.504;2022-11-20T04:24:32;12.70;;;5.40;;
37715;SDS011;23562;50.540;12.504;2022-11-20T04:26:57;10.00;;;4.83;;
37715;SDS011;23562;50.540;12.504;2022-11-20T04:29:22;10.07;;;4.88;;
37715;SDS011;23562;50.540;12.504;2022-11-20T04:31:47;9.30;;;4.78;;
37715;SDS011;23562;50.540;12.504;2022-11-20T04:34:13;11.27;;;4.97;;
37715;SDS011;23562;50.540;12.504;2022-11-20T04:36:38;10.77;;;5.15;;
37715;SDS011;23562;50.540;12.504;2022-11-20T04:39:04;9.82;;;4.57;;
37715;SDS011;23562;50.540;12.504;2022-11-20T04:41:30;11.38;;;5.10;;
37715;SDS011;23562;50.540;12.504;2022-11-20T04:43:57;11.00;;;4.70;;
37715;SDS011;23562;50.540;12.504;2022-11-20T04:46:28;9.20;;;4.50;;
37715;SDS011;23562;50.540;12.504;2022-11-20T04:51:57;11.57;;;4.88;;
37715;SDS011;23562;50.540;12.504;2022-11-20T04:54:22;9.65;;;4.82;;
37715;SDS011;23562;50.540;12.504;2022-11-20T04:56:50;9.13;;;4.55;;
37715;SDS011;23562;50.540;12.504;2022-11-20T04:59:16;13.10;;;4.70;;
37715;SDS011;23562;50.540;12.504;2022-11-20T05:01:44;10.35;;;4.65;;
37715;SDS011;23562;50.540;12.504;2022-11-20T05:04:09;9.93;;;4.45;;
37715;SDS011;23562;50.540;12.504;2022-11-20T05:06:34;10.18;;;4.65;;
37715;SDS011;23562;50.540;12.504;2022-11-20T05:09:00;8.75;;;4.57;;
37715;SDS011;23562;50.540;12.504;2022-11-20T05:11:28;8.25;;;3.97;;
37715;SDS011;23562;50.540;12.504;2022-11-20T05:13:54;10.25;;;4.53;;
37715;SDS011;23562;50.540;12.504;2022-11-20T05:16:25;10.63;;;4.68;;
37715;SDS011;23562;50.540;12.504;2022-11-20T05:18:51;15.65;;;4.78;;
37715;SDS011;23562;50.540;12.504;2022-11-20T05:21:20;11.60;;;5.32;;
37715;SDS011;23562;50.540;12.504;2022-11-20T05:23:45;20.20;;;12.63;;
37715;SDS011;23562;50.540;12.504;2022-11-20T05:26:15;230.95;;;95.18;;
37715;SDS011;23562;50.540;12.504;2022-11-20T05:28:44;341.52;;;98.57;;
37715;SDS011;23562;50.540;12.504;2022-11-20T05:31:14;685.28;;;184.43;;
37715;SDS011;23562;50.540;12.504;2022-11-20T05:33:40;131.65;;;33.40;;
37715;SDS011;23562;50.540;12.504;2022-11-20T05:36:06;123.78;;;35.28;;
37715;SDS011;23562;50.540;12.504;2022-11-20T05:38:31;34.63;;;12.52;;
37715;SDS011;23562;50.540;12.504;2022-11-20T05:41:09;107.85;;;38.08;;
37715;SDS011;23562;50.540;12.504;2022-11-20T05:43:35;215.80;;;85.20;;
37715;SDS011;23562;50.540;12.504;2022-11-20T05:46:01;510.52;;;194.75;;
37715;SDS011;23562;50.540;12.504;2022-11-20T05:48:26;326.83;;;133.95;;
37715;SDS011;23562;50.540;12.504;2022-11-20T05:50:52;148.07;;;65.47;;
37715;SDS011;23562;50.540;12.504;2022-11-20T05:53:17;48.22;;;24.00;;
37715;SDS011;23562;50.540;12.504;2022-11-20T05:55:42;36.70;;;18.53;;
37715;SDS011;23562;50.540;12.504;2022-11-20T05:58:07;14.67;;;7.37;;
37715;SDS011;23562;50.540;12.504;2022-11-20T06:00:32;10.77;;;6.07;;
37715;SDS011;23562;50.540;12.504;2022-11-20T06:02:58;11.93;;;5.17;;
37715;SDS011;23562;50.540;12.504;2022-11-20T06:05:23;9.43;;;4.73;;
37715;SDS011;23562;50.540;12.504;2022-11-20T06:07:48;8.73;;;4.35;;
37715;SDS011;23562;50.540;12.504;2022-11-20T06:10:13;9.85;;;4.45;;
37715;SDS011;23562;50.540;12.504;2022-11-20T06:12:38;9.57;;;4.17;;
37715;SDS011;23562;50.540;12.504;2022-11-20T06:15:04;10.90;;;4.93;;
37715;SDS011;23562;50.540;12.504;2022-11-20T06:17:29;8.85;;;4.28;;
37715;SDS011;23562;50.540;12.504;2022-11-20T06:19:54;8.70;;;4.20;;
37715;SDS011;23562;50.540;12.504;2022-11-20T06:22:20;9.70;;;4.50;;
37715;SDS011;23562;50.540;12.504;2022-11-20T06:24:45;9.67;;;4.60;;
37715;SDS011;23562;50.540;12.504;2022-11-20T06:27:10;9.00;;;4.20;;
37715;SDS011;23562;50.540;12.504;2022-11-20T06:29:35;11.48;;;4.82;;
37715;SDS011;23562;50.540;12.504;2022-11-20T06:32:00;10.73;;;4.57;;
37715;SDS011;23562;50.540;12.504;2022-11-20T06:34:26;10.45;;;4.80;;
37715;SDS011;23562;50.540;12.504;2022-11-20T06:36:51;15.20;;;6.90;;
37715;SDS011;23562;50.540;12.504;2022-11-20T06:39:16;16.93;;;9.93;;
37715;SDS011;23562;50.540;12.504;2022-11-20T06:41:41;14.45;;;7.70;;
37715;SDS011;23562;50.540;12.504;2022-11-20T06:44:06;15.10;;;7.72;;
37715;SDS011;23562;50.540;12.504;2022-11-20T06:46:32;16.50;;;7.80;;
37715;SDS011;23562;50.540;12.504;2022-11-20T06:48:57;17.37;;;8.67;;
37715;SDS011;23562;50.540;12.504;2022-11-20T06:51:23;15.13;;;7.32;;
37715;SDS011;23562;50.540;12.504;2022-11-20T06:53:48;13.30;;;6.30;;
37715;SDS011;23562;50.540;12.504;2022-11-20T06:56:14;13.50;;;6.35;;
37715;SDS011;23562;50.540;12.504;2022-11-20T06:58:39;15.70;;;7.93;;
37715;SDS011;23562;50.540;12.504;2022-11-20T07:01:06;16.55;;;6.72;;
37715;SDS011;23562;50.540;12.504;2022-11-20T07:03:31;10.90;;;5.80;;
37715;SDS011;23562;50.540;12.504;2022-11-20T07:05:57;14.10;;;6.27;;
37715;SDS011;23562;50.540;12.504;2022-11-20T07:08:23;15.68;;;6.88;;
37715;SDS011;23562;50.540;12.504;2022-11-20T07:10:48;14.98;;;7.20;;
37715;SDS011;23562;50.540;12.504;2022-11-20T07:13:13;14.50;;;6.83;;
37715;SDS011;23562;50.540;12.504;2022-11-20T07:15:38;15.50;;;7.50;;
37715;SDS011;23562;50.540;12.504;2022-11-20T07:18:04;14.07;;;7.17;;
37715;SDS011;23562;50.540;12.504;2022-11-20T07:20:29;33.43;;;20.00;;
37715;SDS011;23562;50.540;12.504;2022-11-20T07:22:54;31.37;;;19.40;;
37715;SDS011;23562;50.540;12.504;2022-11-20T07:25:20;18.52;;;12.00;;
37715;SDS011;23562;50.540;12.504;2022-11-20T07:27:45;19.13;;;10.20;;
37715;SDS011;23562;50.540;12.504;2022-11-20T07:30:11;17.02;;;10.13;;
37715;SDS011;23562;50.540;12.504;2022-11-20T07:32:36;15.05;;;9.10;;
37715;SDS011;23562;50.540;12.504;2022-11-20T07:35:01;16.90;;;8.70;;
37715;SDS011;23562;50.540;12.504;2022-11-20T07:37:26;13.70;;;7.57;;
37715;SDS011;23562;50.540;12.504;2022-11-20T07:39:51;15.33;;;9.17;;
37715;SDS011;23562;50.540;12.504;2022-11-20T07:42:17;14.52;;;7.75;;
37715;SDS011;23562;50.540;12.504;2022-11-20T07:44:42;16.10;;;8.30;;
37715;SDS011;23562;50.540;12.504;2022-11-20T07:47:07;15.50;;;6.68;;
37715;SDS011;23562;50.540;12.504;2022-11-20T07:49:32;12.90;;;6.80;;
37715;SDS011;23562;50.540;12.504;2022-11-20T07:51:58;15.95;;;7.60;;
37715;SDS011;23562;50.540;12.504;2022-11-20T07:54:23;15.03;;;7.57;;
37715;SDS011;23562;50.540;12.504;2022-11-20T07:56:48;16.70;;;7.53;;
37715;SDS011;23562;50.540;12.504;2022-11-20T07:59:13;125.75;;;47.88;;
37715;SDS011;23562;50.540;12.504;2022-11-20T08:01:39;29.45;;;16.08;;
37715;SDS011;23562;50.540;12.504;2022-11-20T08:04:04;13.50;;;7.18;;
37715;SDS011;23562;50.540;12.504;2022-11-20T08:06:30;35.57;;;21.47;;
37715;SDS011;23562;50.540;12.504;2022-11-20T08:08:55;16.93;;;7.80;;
37715;SDS011;23562;50.540;12.504;2022-11-20T08:11:20;20.00;;;10.87;;
37715;SDS011;23562;50.540;12.504;2022-11-20T08:14:04;14.20;;;6.50;;
37715;SDS011;23562;50.540;12.504;2022-11-20T08:16:39;13.55;;;7.00;;
37715;SDS011;23562;50.540;12.504;2022-11-20T08:19:04;13.63;;;7.20;;
37715;SDS011;23562;50.540;12.504;2022-11-20T08:21:30;14.80;;;7.72;;
37715;SDS011;23562;50.540;12.504;2022-11-20T08:23:55;16.13;;;7.88;;
37715;SDS011;23562;50.540;12.504;2022-11-20T08:26:21;17.67;;;9.63;;
37715;SDS011;23562;50.540;12.504;2022-11-20T08:28:47;18.25;;;9.15;;
37715;SDS011;23562;50.540;12.504;2022-11-20T08:31:12;16.60;;;8.33;;
37715;SDS011;23562;50.540;12.504;2022-11-20T08:33:37;20.27;;;8.87;;
37715;SDS011;23562;50.540;12.504;2022-11-20T08:36:03;16.17;;;8.67;;
37715;SDS011;23562;50.540;12.504;2022-11-20T08:38:29;16.25;;;8.60;;
37715;SDS011;23562;50.540;12.504;2022-11-20T08:40:57;18.73;;;9.32;;
37715;SDS011;23562;50.540;12.504;2022-11-20T08:43:41;18.35;;;8.93;;
37715;SDS011;23562;50.540;12.504;2022-11-20T08:46:06;20.55;;;9.85;;
37715;SDS011;23562;50.540;12.504;2022-11-20T08:48:32;14.97;;;7.90;;
37715;SDS011;23562;50.540;12.504;2022-11-20T08:50:57;18.55;;;8.55;;
37715;SDS011;23562;50.540;12.504;2022-11-20T08:53:23;16.58;;;9.15;;
37715;SDS011;23562;50.540;12.504;2022-11-20T08:55:48;18.20;;;10.27;;
37715;SDS011;23562;50.540;12.504;2022-11-20T08:58:13;17.05;;;9.13;;
37715;SDS011;23562;50.540;12.504;2022-11-20T09:00:38;18.35;;;9.48;;
37715;SDS011;23562;50.540;12.504;2022-11-20T09:03:03;19.17;;;9.53;;
37715;SDS011;23562;50.540;12.504;2022-11-20T09:05:28;16.35;;;8.07;;
37715;SDS011;23562;50.540;12.504;2022-11-20T09:07:57;18.80;;;9.90;;
37715;SDS011;23562;50.540;12.504;2022-11-20T09:13:25;18.33;;;9.35;;
37715;SDS011;23562;50.540;12.504;2022-11-20T09:15:55;21.08;;;9.27;;
37715;SDS011;23562;50.540;12.504;2022-11-20T09:18:21;15.63;;;7.78;;
37715;SDS011;23562;50.540;12.504;2022-11-20T09:20:46;20.33;;;10.38;;
37715;SDS011;23562;50.540;12.504;2022-11-20T09:23:11;18.20;;;9.48;;
37715;SDS011;23562;50.540;12.504;2022-11-20T09:25:37;23.65;;;10.90;;
37715;SDS011;23562;50.540;12.504;2022-11-20T09:28:02;23.30;;;11.45;;
37715;SDS011;23562;50.540;12.504;2022-11-20T09:30:27;24.05;;;10.63;;
37715;SDS011;23562;50.540;12.504;2022-11-20T09:32:52;21.57;;;10.83;;
37715;SDS011;23562;50.540;12.504;2022-11-20T09:35:17;25.17;;;14.30;;
37715;SDS011;23562;50.540;12.504;2022-11-20T09:37:43;22.55;;;10.85;;
37715;SDS011;23562;50.540;12.504;2022-11-20T09:40:16;22.58;;;11.20;;
37715;SDS011;23562;50.540;12.504;2022-11-20T09:42:47;21.38;;;10.57;;
37715;SDS011;23562;50.540;12.504;2022-11-20T09:50:43;16.92;;;8.85;;
37715;SDS011;23562;50.540;12.504;2022-11-20T09:53:19;17.90;;;8.15;;
37715;SDS011;23562;50.540;12.504;2022-11-20T09:55:45;17.02;;;9.13;;
37715;SDS011;23562;50.540;12.504;2022-11-20T09:58:14;18.77;;;9.30;;
37715;SDS011;23562;50.540;12.504;2022-11-20T10:00:40;17.60;;;8.43;;
37715;SDS011;23562;50.540;12.504;2022-11-20T10:03:11;18.85;;;9.73;;
37715;SDS011;23562;50.540;12.504;2022-11-20T10:05:45;22.58;;;9.68;;
37715;SDS011;23562;50.540;12.504;2022-11-20T10:19:03;19.70;;;10.23;;
37715;SDS011;23562;50.540;12.504;2022-11-20T10:29:41;20.15;;;9.68;;
37715;SDS011;23562;50.540;12.504;2022-11-20T10:32:09;23.40;;;10.70;;
37715;SDS011;23562;50.540;12.504;2022-11-20T10:34:50;26.25;;;10.63;;
37715;SDS011;23562;50.540;12.504;2022-11-20T10:37:26;31.83;;;12.20;;
37715;SDS011;23562;50.540;12.504;2022-11-20T10:42:26;26.45;;;12.55;;
37715;SDS011;23562;50.540;12.504;2022-11-20T10:44:58;27.65;;;12.95;;
37715;SDS011;23562;50.540;12.504;2022-11-20T10:47:26;31.05;;;13.20;;
37715;SDS011;23562;50.540;12.504;2022-11-20T10:49:53;29.05;;;15.02;;
37715;SDS011;23562;50.540;12.504;2022-11-20T10:52:29;29.30;;;14.05;;
37715;SDS011;23562;50.540;12.504;2022-11-20T10:55:16;31.45;;;14.38;;
37715;SDS011;23562;50.540;12.504;2022-11-20T11:00:15;30.10;;;13.40;;
37715;SDS011;23562;50.540;12.504;2022-11-20T11:05:37;27.45;;;12.82;;
37715;SDS011;23562;50.540;12.504;2022-11-20T11:08:04;24.92;;;12.52;;
37715;SDS011;23562;50.540;12.504;2022-11-20T11:10:47;23.83;;;12.75;;
37715;SDS011;23562;50.540;12.504;2022-11-20T11:13:28;30.35;;;14.32;;
37715;SDS011;23562;50.540;12.504;2022-11-20T11:15:54;67.95;;;29.02;;
37715;SDS011;23562;50.540;12.504;2022-11-20T11:18:26;63.20;;;26.73;;
37715;SDS011;23562;50.540;12.504;2022-11-20T11:20:52;33.13;;;16.10;;
37715;SDS011;23562;50.540;12.504;2022-11-20T11:26:23;30.27;;;15.30;;
37715;SDS011;23562;50.540;12.504;2022-11-20T11:28:58;25.02;;;12.27;;
37715;SDS011;23562;50.540;12.504;2022-11-20T11:34:16;96.45;;;53.88;;
37715;SDS011;23562;50.540;12.504;2022-11-20T11:36:41;26.80;;;13.20;;
37715;SDS011;23562;50.540;12.504;2022-11-20T11:39:17;28.85;;;13.70;;
37715;SDS011;23562;50.540;12.504;2022-11-20T11:41:43;30.58;;;15.00;;
37715;SDS011;23562;50.540;12.504;2022-11-20T11:46:59;30.58;;;14.63;;
37715;SDS011;23562;50.540;12.504;2022-11-20T11:49:24;30.27;;;15.23;;
37715;SDS011;23562;50.540;12.504;2022-11-20T11:54:57;32.45;;;15.85;;
37715;SDS011;23562;50.540;12.504;2022-11-20T12:00:12;31.70;;;15.35;;
37715;SDS011;23562;50.540;12.504;2022-11-20T12:05:23;34.33;;;15.77;;
37715;SDS011;23562;50.540;12.504;2022-11-20T12:07:50;37.60;;;17.98;;
37715;SDS011;23562;50.540;12.504;2022-11-20T12:10:20;34.15;;;16.17;;
37715;SDS011;23562;50.540;12.504;2022-11-20T12:12:54;37.13;;;17.15;;
37715;SDS011;23562;50.540;12.504;2022-11-20T12:15:23;34.22;;;15.73;;
37715;SDS011;23562;50.540;12.504;2022-11-20T12:17:50;32.47;;;15.63;;
37715;SDS011;23562;50.540;12.504;2022-11-20T12:20:15;32.67;;;15.60;;
37715;SDS011;23562;50.540;12.504;2022-11-20T12:22:47;31.23;;;14.90;;
37715;SDS011;23562;50.540;12.504;2022-11-20T12:25:19;35.35;;;16.67;;
37715;SDS011;23562;50.540;12.504;2022-11-20T12:30:30;35.22;;;16.92;;
37715;SDS011;23562;50.540;12.504;2022-11-20T12:35:47;35.38;;;15.27;;
37715;SDS011;23562;50.540;12.504;2022-11-20T12:41:13;42.35;;;19.92;;
37715;SDS011;23562;50.540;12.504;2022-11-20T12:44:08;66.28;;;29.33;;
37715;SDS011;23562;50.540;12.504;2022-11-20T12:47:05;38.45;;;18.67;;
37715;SDS011;23562;50.540;12.504;2022-11-20T12:53:04;38.58;;;19.30;;
37715;SDS011;23562;50.540;12.504;2022-11-20T12:55:15;42.15;;;18.33;;
37715;SDS011;23562;50.540;12.504;2022-11-20T12:58:16;41.05;;;20.17;;
37715;SDS011;23562;50.540;12.504;2022-11-20T13:00:33;37.80;;;18.75;;
37715;SDS011;23562;50.540;12.504;2022-11-20T13:05:37;36.60;;;17.52;;
37715;SDS011;23562;50.540;12.504;2022-11-20T13:08:08;37.90;;;18.10;;
37715;SDS011;23562;50.540;12.504;2022-11-20T13:10:43;37.70;;;19.55;;
37715;SDS011;23562;50.540;12.504;2022-11-20T13:13:25;35.53;;;18.73;;
37715;SDS011;23562;50.540;12.504;2022-11-20T13:18:22;34.70;;;16.58;;
37715;SDS011;23562;50.540;12.504;2022-11-20T13:20:48;32.47;;;16.17;;
37715;SDS011;23562;50.540;12.504;2022-11-20T13:23:24;31.23;;;15.70;;
37715;SDS011;23562;50.540;12.504;2022-11-20T13:25:50;32.67;;;15.27;;
37715;SDS011;23562;50.540;12.504;2022-11-20T13:30:49;37.28;;;17.10;;
37715;SDS011;23562;50.540;12.504;2022-11-20T13:33:31;35.03;;;14.98;;
37715;SDS011;23562;50.540;12.504;2022-11-20T13:38:28;33.53;;;15.60;;
37715;SDS011;23562;50.540;12.504;2022-11-20T13:41:00;30.95;;;15.38;;
37715;SDS011;23562;50.540;12.504;2022-11-20T13:43:48;30.02;;;13.98;;
37715;SDS011;23562;50.540;12.504;2022-11-20T13:46:14;27.67;;;12.93;;
37715;SDS011;23562;50.540;12.504;2022-11-20T13:48:43;23.77;;;11.50;;
37715;SDS011;23562;50.540;12.504;2022-11-20T13:51:15;23.45;;;11.65;;
37715;SDS011;23562;50.540;12.504;2022-11-20T13:53:57;25.08;;;11.88;;
37715;SDS011;23562;50.540;12.504;2022-11-20T13:56:34;23.50;;;11.48;;
37715;SDS011;23562;50.540;12.504;2022-11-20T13:59:16;27.25;;;11.38;;
37715;SDS011;23562;50.540;12.504;2022-11-20T14:01:48;24.75;;;11.98;;
37715;SDS011;23562;50.540;12.504;2022-11-20T14:04:15;28.77;;;13.30;;
37715;SDS011;23562;50.540;12.504;2022-11-20T14:06:43;39.00;;;18.67;;
37715;SDS011;23562;50.540;12.504;2022-11-20T14:09:12;22.73;;;12.60;;
37715;SDS011;23562;50.540;12.504;2022-11-20T14:11:45;26.83;;;12.65;;
37715;SDS011;23562;50.540;12.504;2022-11-20T14:14:13;24.70;;;12.30;;
37715;SDS011;23562;50.540;12.504;2022-11-20T14:16:40;19.50;;;11.32;;
37715;SDS011;23562;50.540;12.504;2022-11-20T14:21:51;19.10;;;10.60;;
37715;SDS011;23562;50.540;12.504;2022-11-20T14:24:20;18.88;;;9.75;;
37715;SDS011;23562;50.540;12.504;2022-11-20T14:26:46;21.90;;;11.18;;
37715;SDS011;23562;50.540;12.504;2022-11-20T14:29:13;20.48;;;11.18;;
37715;SDS011;23562;50.540;12.504;2022-11-20T14:31:38;20.77;;;11.45;;
37715;SDS011;23562;50.540;12.504;2022-11-20T14:34:04;22.67;;;12.53;;
37715;SDS011;23562;50.540;12.504;2022-11-20T14:36:29;22.33;;;11.43;;
37715;SDS011;23562;50.540;12.504;2022-11-20T14:38:54;24.00;;;11.97;;
37715;SDS011;23562;50.540;12.504;2022-11-20T14:41:20;20.42;;;11.68;;
37715;SDS011;23562;50.540;12.504;2022-11-20T14:43:51;24.25;;;12.30;;
37715;SDS011;23562;50.540;12.504;2022-11-20T14:46:17;22.35;;;12.00;;
37715;SDS011;23562;50.540;12.504;2022-11-20T14:48:45;25.95;;;12.02;;
37715;SDS011;23562;50.540;12.504;2022-11-20T14:51:10;22.52;;;11.68;;
37715;SDS011;23562;50.540;12.504;2022-11-20T14:53:36;23.75;;;12.75;;
37715;SDS011;23562;50.540;12.504;2022-11-20T14:56:02;21.60;;;11.45;;
37715;SDS011;23562;50.540;12.504;2022-11-20T14:58:28;22.30;;;11.60;;
37715;SDS011;23562;50.540;12.504;2022-11-20T15:00:58;23.75;;;11.95;;
37715;SDS011;23562;50.540;12.504;2022-11-20T15:03:30;21.98;;;12.60;;
37715;SDS011;23562;50.540;12.504;2022-11-20T15:05:55;21.75;;;11.32;;
37715;SDS011;23562;50.540;12.504;2022-11-20T15:08:20;18.42;;;10.38;;
37715;SDS011;23562;50.540;12.504;2022-11-20T15:10:49;19.70;;;11.00;;
37715;SDS011;23562;50.540;12.504;2022-11-20T15:13:36;21.73;;;11.85;;
37715;SDS011;23562;50.540;12.504;2022-11-20T15:16:00;23.48;;;11.32;;
37715;SDS011;23562;50.540;12.504;2022-11-20T15:20:55;25.15;;;12.57;;
37715;SDS011;23562;50.540;12.504;2022-11-20T15:23:20;24.92;;;12.63;;
37715;SDS011;23562;50.540;12.504;2022-11-20T15:25:46;24.42;;;13.00;;
37715;SDS011;23562;50.540;12.504;2022-11-20T15:28:13;21.88;;;11.43;;
37715;SDS011;23562;50.540;12.504;2022-11-20T15:30:40;24.95;;;12.93;;
37715;SDS011;23562;50.540;12.504;2022-11-20T15:33:07;25.15;;;12.80;;
37715;SDS011;23562;50.540;12.504;2022-11-20T15:35:32;25.30;;;12.73;;
37715;SDS011;23562;50.540;12.504;2022-11-20T15:37:58;25.75;;;13.45;;
37715;SDS011;23562;50.540;12.504;2022-11-20T15:40:23;29.67;;;14.95;;
37715;SDS011;23562;50.540;12.504;2022-11-20T15:42:48;28.63;;;14.67;;
37715;SDS011;23562;50.540;12.504;2022-11-20T15:48:00;26.63;;;14.38;;
37715;SDS011;23562;50.540;12.504;2022-11-20T15:50:27;30.38;;;15.20;;
37715;SDS011;23562;50.540;12.504;2022-11-20T15:52:54;31.15;;;14.90;;
37715;SDS011;23562;50.540;12.504;2022-11-20T15:55:19;29.17;;;15.48;;